Aviation Digital Data Service (ADDS)

Output produced by METARs form (0340 UTC 26 April 2019)
found at http://www.aviationweather.gov/metar/data/
 
METAR text: RJOF 260126Z 27009KT 240V300 9999 FEW015 BKN025 BKN045 20/13 Q1007 RMK 1CU015 5CU025 6SC045 A2976
Conditions at: RJOF (HOFU (JASDF) , JP) observed 0126 UTC 26 April 2019
Temperature: 20.0°C (68°F)
Dewpoint: 13.0°C (55°F) [RH = 64%]
Pressure (altimeter): 29.73 inches Hg (1007.0 mb)
Winds: from the W (270 degrees) at 10 MPH (9 knots; 4.6 m/s)
Visibility: 6 or more miles (10+ km)
Ceiling: 2500 feet AGL
Clouds: few clouds at 1500 feet AGL
broken clouds at 2500 feet AGL
broken clouds at 4500 feet AGL
Weather: no significant weather observed at this time

METAR text: RJOF 260122Z 26008KT 230V290 9999 FEW015 SCT025 BKN045 20/13 Q1007 RMK 1CU015 4CU025 6SC045 A2976
Conditions at: RJOF (HOFU (JASDF) , JP) observed 0122 UTC 26 April 2019
Temperature: 20.0°C (68°F)
Dewpoint: 13.0°C (55°F) [RH = 64%]
Pressure (altimeter): 29.73 inches Hg (1007.0 mb)
Winds: from the W (260 degrees) at 9 MPH (8 knots; 4.1 m/s)
Visibility: 6 or more miles (10+ km)
Ceiling: 4500 feet AGL
Clouds: few clouds at 1500 feet AGL
scattered clouds at 2500 feet AGL
broken clouds at 4500 feet AGL
Weather: no significant weather observed at this time

METAR text: RJOF 260035Z 27011KT 9999 FEW010 BKN020 BKN045 19/13 Q1007 RMK 1CU010 5CU020 7SC045 A2976
Conditions at: RJOF (HOFU (JASDF) , JP) observed 0035 UTC 26 April 2019
Temperature: 19.0°C (66°F)
Dewpoint: 13.0°C (55°F) [RH = 68%]
Pressure (altimeter): 29.73 inches Hg (1007.0 mb)
Winds: from the W (270 degrees) at 13 MPH (11 knots; 5.7 m/s)
Visibility: 6 or more miles (10+ km)
Ceiling: 2000 feet AGL
Clouds: few clouds at 1000 feet AGL
broken clouds at 2000 feet AGL
broken clouds at 4500 feet AGL
Weather: no significant weather observed at this time

METAR text: RJOF 252329Z 29009KT 9999 VCSH FEW012 SCT018 BKN040 17/13 Q1007 RMK 1CU012 3CU018 6CU040 A2975 VCSH N
Conditions at: RJOF (HOFU (JASDF) , JP) observed 2329 UTC 25 April 2019
Temperature: 17.0°C (63°F)
Dewpoint: 13.0°C (55°F) [RH = 77%]
Pressure (altimeter): 29.73 inches Hg (1007.0 mb)
Winds: from the WNW (290 degrees) at 10 MPH (9 knots; 4.6 m/s)
Visibility: 6 or more miles (10+ km)
Ceiling: 4000 feet AGL
Clouds: few clouds at 1200 feet AGL
scattered clouds at 1800 feet AGL
broken clouds at 4000 feet AGL
Weather: VCSH  (showers in vicinity)

METAR text: RJOF 252307Z 29009KT 9999 -SHRA FEW010 BKN015 BKN040 17/13 Q1007 RMK 1CU010 6CU015 7CU040 A2975
Conditions at: RJOF (HOFU (JASDF) , JP) observed 2307 UTC 25 April 2019
Temperature: 17.0°C (63°F)
Dewpoint: 13.0°C (55°F) [RH = 77%]
Pressure (altimeter): 29.73 inches Hg (1007.0 mb)
Winds: from the WNW (290 degrees) at 10 MPH (9 knots; 4.6 m/s)
Visibility: 6 or more miles (10+ km)
Ceiling: 1500 feet AGL
Clouds: few clouds at 1000 feet AGL
broken clouds at 1500 feet AGL
broken clouds at 4000 feet AGL
Weather: -SHRA  (light rain showers)

METAR text: RJOF 252249Z 28011KT 9999 VCSH FEW010 BKN015 BKN040 17/13 Q1007 RMK 1CU010 5CU015 7CU040 A2975 VCSH W
Conditions at: RJOF (HOFU (JASDF) , JP) observed 2249 UTC 25 April 2019
Temperature: 17.0°C (63°F)
Dewpoint: 13.0°C (55°F) [RH = 77%]
Pressure (altimeter): 29.73 inches Hg (1007.0 mb)
Winds: from the W (280 degrees) at 13 MPH (11 knots; 5.7 m/s)
Visibility: 6 or more miles (10+ km)
Ceiling: 1500 feet AGL
Clouds: few clouds at 1000 feet AGL
broken clouds at 1500 feet AGL
broken clouds at 4000 feet AGL
Weather: VCSH  (showers in vicinity)

METAR text: RJOF 251914Z 25010KT 9999 FEW008 BKN012 BKN050 16/13 Q1006 RMK 1ST008 5CU012 7SC050 A2971
Conditions at: RJOF (HOFU (JASDF) , JP) observed 1914 UTC 25 April 2019
Temperature: 16.0°C (61°F)
Dewpoint: 13.0°C (55°F) [RH = 82%]
Pressure (altimeter): 29.70 inches Hg (1006.0 mb)
Winds: from the WSW (250 degrees) at 12 MPH (10 knots; 5.1 m/s)
Visibility: 6 or more miles (10+ km)
Ceiling: 1200 feet AGL
Clouds: few clouds at 800 feet AGL
broken clouds at 1200 feet AGL
broken clouds at 5000 feet AGL
Weather: no significant weather observed at this time